Time;durP1;ratioP1;P1;durP2;ratioP2;P2;SDS_P1;SDS_P2;PMS_P1;PMS_P2;Temp;Humidity;BMP_temperature;BMP_pressure;BME280_temperature;BME280_humidity;BME280_pressure;Samples;Min_cycle;Max_cycle;Signal;HPM_P1;HPM_P2
2023/01/07 00:02:07;;;;;;;0.90;0.90;;;;;;;6.14;80.24;99866.91;4435047;32;33915;-73
2023/01/07 00:04:35;;;;;;;2.35;1.87;;;;;;;5.97;81.35;99868.34;4423622;32;35593;-73
2023/01/07 00:07:03;;;;;;;0.93;0.73;;;;;;;6.51;79.77;99862.28;4423494;32;34394;-74
2023/01/07 00:09:31;;;;;;;2.60;1.85;;;;;;;6.53;78.94;99860.59;4434950;32;34281;-73
2023/01/07 00:12:00;;;;;;;0.77;0.77;;;;;;;6.69;76.27;99872.00;4423513;32;34011;-73
2023/01/07 00:14:27;;;;;;;0.50;0.50;;;;;;;6.19;77.91;99875.56;4423760;32;36024;-73
2023/01/07 00:16:55;;;;;;;2.80;2.15;;;;;;;5.91;78.96;99866.47;4423307;32;34391;-74
2023/01/07 00:19:24;;;;;;;1.95;1.00;;;;;;;6.45;77.46;99870.81;4423370;32;33296;-74
2023/01/07 00:21:52;;;;;;;2.75;1.17;;;;;;;6.67;77.16;99872.81;4434991;32;33769;-74
2023/01/07 00:24:20;;;;;;;3.50;1.55;;;;;;;6.68;78.05;99875.44;4423245;32;35084;-73
2023/01/07 00:26:48;;;;;;;1.80;1.70;;;;;;;6.78;77.64;99881.63;4423216;32;34720;-73
2023/01/07 00:29:17;;;;;;;0.70;0.70;;;;;;;6.11;83.36;99876.34;4423235;32;34202;-74
2023/01/07 00:31:45;;;;;;;4.47;3.97;;;;;;;6.56;82.22;99877.84;4423174;32;33887;-73
2023/01/07 00:34:14;;;;;;;1.08;1.02;;;;;;;6.16;81.35;99888.47;4423048;32;35101;-73
2023/01/07 00:36:44;;;;;;;0.80;0.80;;;;;;;6.79;79.52;99881.63;4422989;32;35204;-73
2023/01/07 00:39:20;;;;;;;2.65;2.45;;;;;;;6.86;78.97;99890.34;4423169;32;32712;-73
2023/01/07 00:44:36;;;;;;;1.70;1.60;;;;;;;6.96;81.39;99881.84;4423031;32;35018;-73
2023/01/07 00:47:05;;;;;;;3.85;3.53;;;;;;;7.00;81.03;99887.94;4422859;32;35141;-73
2023/01/07 00:49:33;;;;;;;1.10;1.10;;;;;;;7.05;79.49;99885.41;4422935;32;33297;-73
2023/01/07 00:52:01;;;;;;;1.70;1.60;;;;;;;6.88;80.12;99890.34;4434384;32;33914;-73
2023/01/07 00:54:29;;;;;;;1.15;1.02;;;;;;;6.88;80.29;99892.94;4422887;32;35029;-73
2023/01/07 00:56:57;;;;;;;0.60;0.60;;;;;;;6.75;80.86;99889.34;4423044;32;34750;-73
2023/01/07 00:59:25;;;;;;;0.57;0.57;;;;;;;6.64;80.86;99890.06;4422780;32;33487;-74
2023/01/07 01:01:54;;;;;;;1.30;1.30;;;;;;;5.70;86.31;99890.25;4422776;32;34828;-74
2023/01/07 01:04:24;;;;;;;0.95;0.95;;;;;;;6.18;85.66;99889.38;4424988;32;34218;-74
2023/01/07 01:06:52;;;;;;;2.70;0.90;;;;;;;6.93;81.49;99897.31;4424836;32;34397;-73
2023/01/07 01:09:21;;;;;;;0.93;0.93;;;;;;;7.01;81.38;99890.53;4424858;32;34204;-73
2023/01/07 01:11:49;;;;;;;2.47;2.30;;;;;;;6.72;82.05;99887.56;4436372;32;34683;-74
2023/01/07 01:14:17;;;;;;;1.05;1.05;;;;;;;6.32;84.98;99888.69;4436236;32;35052;-73
2023/01/07 01:16:45;;;;;;;1.75;1.65;;;;;;;6.82;85.17;99888.56;4424764;32;34986;-74
2023/01/07 01:19:14;;;;;;;1.85;1.75;;;;;;;6.46;86.09;99884.63;4436183;32;33409;-73
2023/01/07 01:21:42;;;;;;;1.48;1.37;;;;;;;7.00;83.83;99878.44;4424803;32;33998;-74
2023/01/07 01:24:10;;;;;;;1.25;1.25;;;;;;;7.06;82.56;99889.72;4424554;32;35056;-73
2023/01/07 01:26:38;;;;;;;0.82;0.82;;;;;;;6.76;83.53;99884.19;4424722;32;34402;-73
2023/01/07 01:29:06;;;;;;;0.68;0.68;;;;;;;6.97;82.99;99885.28;4424634;32;33467;-74
2023/01/07 01:31:34;;;;;;;2.00;1.90;;;;;;;6.73;83.71;99885.84;4436502;32;34670;-74
2023/01/07 01:34:03;;;;;;;0.50;0.50;;;;;;;6.55;85.66;99884.75;4424645;32;34922;-73
2023/01/07 01:36:31;;;;;;;1.83;1.73;;;;;;;6.97;85.31;99888.78;4424799;32;34334;-74
2023/01/07 01:38:59;;;;;;;1.20;1.20;;;;;;;7.38;83.48;99888.38;4424776;32;33552;-74
2023/01/07 01:41:28;;;;;;;1.02;1.00;;;;;;;7.30;84.54;99887.41;4424483;32;33909;-73
2023/01/07 01:43:57;;;;;;;1.58;1.48;;;;;;;7.26;84.42;99880.47;4424628;32;36112;-74
2023/01/07 01:46:40;;;;;;;0.82;0.82;;;;;;;7.26;83.61;99872.69;4436262;32;35032;-74
2023/01/07 01:49:15;;;;;;;0.60;0.60;;;;;;;6.99;84.85;99870.66;4423840;32;34235;-74
2023/01/07 01:51:46;;;;;;;0.60;0.60;;;;;;;6.69;85.99;99868.53;4424667;32;33755;-73
2023/01/07 01:54:15;;;;;;;0.85;0.85;;;;;;;7.05;84.34;99862.97;4422989;32;35115;-74
2023/01/07 01:56:47;;;;;;;1.23;1.23;;;;;;;7.22;82.90;99864.03;4436040;32;35069;-73
2023/01/07 01:59:22;;;;;;;1.20;1.15;;;;;;;6.36;86.71;99856.87;4436268;32;33389;-74
2023/01/07 02:01:52;;;;;;;0.60;0.60;;;;;;;6.48;85.77;99851.88;4424807;32;33896;-74
2023/01/07 02:04:22;;;;;;;4.62;3.83;;;;;;;6.63;85.32;99857.25;4436000;32;35955;-74
2023/01/07 02:06:57;;;;;;;1.00;1.00;;;;;;;6.47;85.99;99849.28;4423444;32;35177;-74
2023/01/07 02:09:26;;;;;;;0.60;0.60;;;;;;;6.51;86.08;99851.94;4424829;32;33602;-74
2023/01/07 02:12:03;;;;;;;0.65;0.65;;;;;;;6.42;86.87;99847.50;4424716;32;33986;-73
2023/01/07 02:14:38;;;;;;;1.33;1.33;;;;;;;6.78;85.73;99851.41;4424345;32;34918;-73
2023/01/07 02:17:40;;;;;;;1.92;1.25;;;;;;;6.76;85.12;99854.81;4424405;32;35391;-73
2023/01/07 02:20:14;;;;;;;3.92;2.80;;;;;;;6.69;86.04;99850.41;4424541;32;33547;-74
2023/01/07 02:23:07;;;;;;;0.88;0.88;;;;;;;6.95;85.18;99849.06;4424204;32;34619;-74
2023/01/07 02:26:07;;;;;;;0.65;0.65;;;;;;;7.01;84.53;99843.94;4424618;32;34918;-73
2023/01/07 02:29:03;;;;;;;0.50;0.50;;;;;;;7.21;83.20;99835.50;4424302;32;34457;-73
2023/01/07 02:32:07;;;;;;;0.60;0.60;;;;;;;7.29;82.31;99839.06;4424591;32;33366;-73
2023/01/07 02:34:42;;;;;;;0.82;0.82;;;;;;;7.67;79.30;99835.97;4424345;32;34634;-74
2023/01/07 02:37:10;;;;;;;0.65;0.65;;;;;;;6.64;82.88;99833.13;4424279;32;34917;-73
2023/01/07 02:40:03;;;;;;;0.85;0.85;;;;;;;6.17;84.93;99832.47;4424210;32;34471;-74
2023/01/07 02:43:20;;;;;;;0.55;0.55;;;;;;;6.75;83.46;99841.03;4423147;32;34205;-73
2023/01/07 02:45:56;;;;;;;0.90;0.90;;;;;;;6.48;83.52;99840.63;4406828;32;34538;-74
2023/01/07 02:48:24;;;;;;;1.60;1.50;;;;;;;6.72;81.68;99840.13;4423746;32;34906;-74
2023/01/07 02:50:53;;;;;;;0.50;0.50;;;;;;;6.32;84.47;99839.56;4424191;32;34455;-73
2023/01/07 02:53:21;;;;;;;1.20;0.98;;;;;;;6.14;84.62;99843.63;4424217;32;33533;-73
2023/01/07 02:56:23;;;;;;;5.93;2.35;;;;;;;6.24;84.56;99837.72;4423278;32;33925;-73
2023/01/07 02:59:43;;;;;;;0.77;0.75;;;;;;;6.92;82.83;99848.13;4415304;32;35152;-73
2023/01/07 03:02:27;;;;;;;0.70;0.70;;;;;;;5.97;85.63;99837.34;4406834;32;34401;-73
2023/01/07 03:05:05;;;;;;;0.90;0.90;;;;;;;6.17;85.92;99835.91;4423396;32;33438;-74
2023/01/07 03:07:52;;;;;;;2.15;1.95;;;;;;;6.35;85.67;99839.59;4423087;32;34697;-74
2023/01/07 03:10:29;;;;;;;0.50;0.50;;;;;;;6.89;82.73;99837.75;4424058;32;35498;-74
2023/01/07 03:13:03;;;;;;;2.67;2.35;;;;;;;6.57;83.21;99835.63;4424113;32;34326;-73
2023/01/07 03:15:36;;;;;;;1.77;1.67;;;;;;;6.64;82.62;99827.94;4435497;32;34235;-73
2023/01/07 03:18:17;;;;;;;2.50;2.12;;;;;;;6.26;86.20;99828.31;4423047;32;33842;-74
2023/01/07 03:20:48;;;;;;;0.60;0.60;;;;;;;6.26;86.38;99817.97;4422861;32;35046;-74
2023/01/07 03:23:20;;;;;;;0.93;0.93;;;;;;;6.28;86.77;99823.13;4423883;32;34423;-74
2023/01/07 03:25:50;;;;;;;0.60;0.60;;;;;;;6.71;85.52;99823.72;4423386;32;33439;-74
2023/01/07 03:28:23;;;;;;;1.52;1.25;;;;;;;6.55;85.52;99814.91;4422813;32;34120;-74
2023/01/07 03:30:54;;;;;;;1.20;1.12;;;;;;;6.80;84.42;99822.97;4422740;32;35043;-74
2023/01/07 03:33:52;;;;;;;1.80;1.70;;;;;;;7.09;82.80;99812.94;4423012;32;33628;-74
2023/01/07 03:36:24;;;;;;;1.00;1.00;;;;;;;6.66;85.14;99815.03;4422893;32;33328;-73
2023/01/07 03:38:54;;;;;;;0.50;0.50;;;;;;;7.22;78.75;99811.37;4435323;32;33871;-73
2023/01/07 03:44:10;;;;;;;;;;;;;;;6.19;84.33;99810.94;4424139;32;34431;-73
2023/01/07 03:46:38;;;;;;;0.60;0.60;;;;;;;5.97;84.07;99811.47;4423916;32;34253;-74
2023/01/07 03:49:06;;;;;;;1.12;1.12;;;;;;;6.35;84.33;99805.97;4423613;32;34606;-73
2023/01/07 03:51:34;;;;;;;1.52;1.45;;;;;;;6.35;83.01;99809.44;4423996;32;35027;-73
2023/01/07 03:54:03;;;;;;;0.60;0.60;;;;;;;6.13;84.76;99812.59;4423716;32;34407;-73
2023/01/07 03:56:31;;;;;;;0.80;0.80;;;;;;;6.06;84.42;99801.28;4423938;32;33554;-74
2023/01/07 03:58:59;;;;;;;0.80;0.80;;;;;;;6.58;82.04;99809.75;4435113;32;33872;-74
2023/01/07 04:01:29;;;;;;;1.12;1.08;;;;;;;5.56;86.47;99804.75;4423618;32;35998;-73
2023/01/07 04:03:57;;;;;;;0.70;0.70;;;;;;;5.63;86.20;99808.28;4423866;32;34496;-73
2023/01/07 04:06:29;;;;;;;0.50;0.50;;;;;;;5.99;85.58;99814.97;4422575;32;33380;-73
2023/01/07 04:08:58;;;;;;;0.57;0.57;;;;;;;5.89;85.73;99814.78;4423735;32;33872;-73
2023/01/07 04:11:26;;;;;;;0.95;0.95;;;;;;;5.93;86.53;99809.63;4423797;32;35002;-74
2023/01/07 04:13:56;;;;;;;0.50;0.50;;;;;;;5.50;88.63;99813.25;4423450;32;34410;-73
2023/01/07 04:16:24;;;;;;;1.10;1.08;;;;;;;6.09;87.00;99819.44;4423450;32;33458;-73
2023/01/07 04:18:54;;;;;;;1.27;1.17;;;;;;;5.93;87.81;99819.97;4423689;32;34815;-73
2023/01/07 04:21:22;;;;;;;0.80;0.80;;;;;;;5.99;88.28;99814.97;4423553;32;35119;-74
2023/01/07 04:23:50;;;;;;;1.30;0.88;;;;;;;6.40;86.44;99812.94;4423136;32;35118;-74
2023/01/07 04:26:18;;;;;;;0.70;0.70;;;;;;;6.22;86.22;99818.75;4423226;32;33650;-73
2023/01/07 04:28:46;;;;;;;0.75;0.75;;;;;;;6.31;86.99;99815.41;4423453;32;33900;-73
2023/01/07 04:31:15;;;;;;;1.00;0.90;;;;;;;6.21;87.37;99819.59;4423393;32;34985;-74
2023/01/07 04:33:44;;;;;;;1.08;1.08;;;;;;;6.29;85.17;99811.94;4434827;32;34289;-73
2023/01/07 04:36:12;;;;;;;1.58;1.48;;;;;;;6.75;81.30;99816.88;4434660;32;33398;-73
2023/01/07 04:38:41;;;;;;;0.50;0.50;;;;;;;6.05;82.07;99815.03;4424758;32;34149;-73
2023/01/07 04:41:09;;;;;;;1.02;1.02;;;;;;;5.74;84.87;99814.53;4425267;32;35718;-73
2023/01/07 04:43:37;;;;;;;0.93;0.93;;;;;;;6.16;82.15;99818.66;4436486;32;34361;-74
2023/01/07 04:46:06;;;;;;;0.50;0.50;;;;;;;6.10;82.49;99818.56;4425007;32;33576;-73
2023/01/07 04:48:34;;;;;;;0.50;0.50;;;;;;;5.92;83.21;99821.69;4436730;32;34847;-74
2023/01/07 04:51:03;;;;;;;0.60;0.60;;;;;;;5.95;82.97;99818.28;4425186;32;35139;-73
2023/01/07 04:53:31;;;;;;;1.00;1.00;;;;;;;6.11;82.74;99812.56;4425007;32;34523;-73
2023/01/07 04:56:00;;;;;;;1.90;1.80;;;;;;;6.42;81.97;99818.16;4425188;32;33497;-73
2023/01/07 04:58:28;;;;;;;1.55;1.45;;;;;;;6.17;81.78;99815.22;4425268;32;34015;-73
2023/01/07 05:01:02;;;;;;;1.00;0.77;;;;;;;6.00;81.89;99814.09;4425196;32;35159;-73
2023/01/07 05:03:33;;;;;;;1.27;1.25;;;;;;;5.84;81.30;99818.13;4436073;32;34536;-73
2023/01/07 05:06:02;;;;;;;0.70;0.70;;;;;;;5.62;83.72;99819.50;4436525;32;33494;-73
2023/01/07 05:08:31;;;;;;;0.70;0.70;;;;;;;5.62;85.03;99824.66;4436511;32;33977;-74
2023/01/07 05:10:59;;;;;;;1.20;1.10;;;;;;;5.93;84.96;99825.16;4424942;32;36164;-74
2023/01/07 05:13:27;;;;;;;1.40;1.30;;;;;;;6.04;84.06;99829.69;4423697;32;34745;-73
2023/01/07 05:15:55;;;;;;;0.82;0.82;;;;;;;5.75;84.92;99826.59;4425113;32;33494;-73
2023/01/07 05:18:24;;;;;;;1.37;1.30;;;;;;;5.80;84.21;99830.12;4436256;32;34894;-73
2023/01/07 05:20:52;;;;;;;0.73;0.73;;;;;;;5.60;84.50;99822.03;4424624;32;35095;-73
2023/01/07 05:23:20;;;;;;;3.22;1.98;;;;;;;5.32;86.23;99826.72;4424774;32;35040;-73
2023/01/07 05:25:48;;;;;;;1.85;1.12;;;;;;;5.31;86.50;99830.16;4425031;32;34302;-74
2023/01/07 05:28:17;;;;;;;1.27;1.00;;;;;;;5.85;82.36;99823.31;4424990;32;33940;-73
2023/01/07 05:30:46;;;;;;;4.15;3.37;;;;;;;5.16;84.17;99821.25;4424987;32;35032;-73
2023/01/07 05:33:14;;;;;;;0.60;0.60;;;;;;;4.73;84.99;99819.56;4424852;32;35195;-74
2023/01/07 05:35:42;;;;;;;0.88;0.88;;;;;;;5.05;82.04;99826.22;4424632;32;34362;-73
2023/01/07 05:38:10;;;;;;;0.77;0.77;;;;;;;5.09;82.17;99830.59;4436146;32;34619;-73
2023/01/07 05:40:40;;;;;;;1.15;1.15;;;;;;;5.27;83.14;99833.50;4424632;32;35925;-73
2023/01/07 05:43:09;;;;;;;0.50;0.50;;;;;;;5.63;81.15;99841.87;4436356;32;35185;-73
2023/01/07 05:45:37;;;;;;;1.87;1.42;;;;;;;5.29;84.17;99836.13;4424900;32;33309;-74
2023/01/07 05:48:05;;;;;;;1.17;1.15;;;;;;;5.25;84.14;99844.66;4436078;32;34705;-73
2023/01/07 05:50:33;;;;;;;1.33;1.23;;;;;;;5.69;80.40;99834.25;4424591;32;36056;-73
2023/01/07 05:53:01;;;;;;;2.17;1.42;;;;;;;5.39;82.21;99839.75;4423473;32;34606;-73
2023/01/07 05:55:29;;;;;;;0.65;0.65;;;;;;;5.68;81.06;99837.66;4424637;32;33484;-73
2023/01/07 05:57:58;;;;;;;0.77;0.77;;;;;;;5.83;77.50;99843.09;4424617;32;33894;-73
2023/01/07 06:00:26;;;;;;;2.33;2.15;;;;;;;5.50;78.55;99841.66;4424364;32;35541;-73
2023/01/07 06:02:54;;;;;;;3.12;2.85;;;;;;;5.52;78.35;99839.13;4424352;32;34476;-73
2023/01/07 06:05:22;;;;;;;1.83;1.73;;;;;;;5.50;78.09;99840.81;4424495;32;34222;-73
2023/01/07 06:07:50;;;;;;;1.25;1.25;;;;;;;5.29;79.41;99836.13;4424429;32;33793;-73
2023/01/07 06:10:18;;;;;;;4.45;4.12;;;;;;;5.16;78.31;99840.19;4423250;32;33914;-73
2023/01/07 06:12:46;;;;;;;1.08;1.08;;;;;;;4.56;79.16;99832.09;4424432;32;34319;-73
2023/01/07 06:15:14;;;;;;;1.00;1.00;;;;;;;4.43;81.71;99832.69;4423202;32;33535;-73
2023/01/07 06:17:42;;;;;;;2.85;2.58;;;;;;;4.74;79.68;99831.63;4424342;32;33969;-73
2023/01/07 06:20:13;;;;;;;0.70;0.70;;;;;;;3.79;83.73;99835.53;4435751;32;35973;-73
2023/01/07 06:22:42;;;;;;;2.30;1.85;;;;;;;4.04;83.45;99845.53;4421950;32;35144;-74
2023/01/07 06:25:11;;;;;;;1.70;1.60;;;;;;;4.30;83.95;99840.97;4422753;32;33437;-73
2023/01/07 06:27:39;;;;;;;0.98;0.98;;;;;;;4.46;86.40;99842.19;4419597;32;34006;-73
2023/01/07 06:30:09;;;;;;;3.28;3.00;;;;;;;4.47;90.40;99841.37;4424064;32;35857;-73
2023/01/07 06:32:39;;;;;;;3.17;2.97;;;;;;;4.34;96.22;99841.09;4423278;32;33709;-73
2023/01/07 06:35:08;;;;;;;0.70;0.70;;;;;;;5.03;94.50;99841.66;4423063;32;34469;-73
2023/01/07 06:37:37;;;;;;;0.70;0.70;;;;;;;5.29;90.29;99837.00;4421578;32;33933;-73
2023/01/07 06:40:06;;;;;;;1.00;1.00;;;;;;;4.96;91.28;99844.09;4421958;32;35912;-73
2023/01/07 06:42:35;;;;;;;0.60;0.60;;;;;;;5.34;89.12;99825.87;4422603;32;34830;-73
2023/01/07 06:45:04;;;;;;;0.90;0.90;;;;;;;5.17;87.00;99813.53;4424172;32;33392;-73
2023/01/07 06:47:32;;;;;;;0.90;0.90;;;;;;;5.07;85.48;99814.22;4423003;32;33893;-73
2023/01/07 06:50:00;;;;;;;0.60;0.60;;;;;;;4.43;88.24;99824.06;4424157;32;35882;-73
2023/01/07 06:52:28;;;;;;;0.80;0.80;;;;;;;4.81;84.09;99830.03;4424161;32;34989;-73
2023/01/07 06:54:56;;;;;;;1.25;1.17;;;;;;;4.72;83.46;99828.13;4422939;32;34282;-72
2023/01/07 06:57:24;;;;;;;3.35;3.15;;;;;;;4.01;86.45;99830.88;4422924;32;33895;-72
2023/01/07 06:59:53;;;;;;;0.60;0.60;;;;;;;4.34;88.79;99835.03;4421911;32;34373;-74
2023/01/07 07:02:24;;;;;;;1.92;1.83;;;;;;;4.63;90.63;99840.84;4423717;32;35055;-75
2023/01/07 07:04:52;;;;;;;0.93;0.90;;;;;;;4.98;88.34;99844.97;4424151;32;33367;-73
2023/01/07 07:07:20;;;;;;;1.37;1.30;;;;;;;5.08;84.69;99840.06;4422855;32;34794;-74
2023/01/07 07:09:49;;;;;;;1.75;1.00;;;;;;;4.50;89.68;99844.00;4422842;32;35005;-75
2023/01/07 07:12:18;;;;;;;1.55;0.88;;;;;;;5.35;93.92;99844.00;4423553;32;34373;-72
2023/01/07 07:14:46;;;;;;;1.67;1.58;;;;;;;6.06;95.00;99850.38;4424054;32;33447;-75
2023/01/07 07:17:15;;;;;;;0.85;0.85;;;;;;;6.60;91.02;99852.06;4423979;32;34717;-75
2023/01/07 07:19:43;;;;;;;0.95;0.95;;;;;;;6.11;84.86;99851.34;4423869;32;35051;-75
2023/01/07 07:22:11;;;;;;;3.30;2.17;;;;;;;6.67;80.56;99852.12;4423797;32;34461;-75
2023/01/07 07:24:39;;;;;;;4.95;2.65;;;;;;;7.52;79.35;99862.63;4423962;32;33447;-75
2023/01/07 07:27:07;;;;;;;0.73;0.73;;;;;;;7.93;77.49;99858.66;4410551;32;34589;-75
2023/01/07 07:29:35;;;;;;;2.20;2.08;;;;;;;7.38;77.39;99865.06;4422694;32;35919;-72
2023/01/07 07:32:04;;;;;;;2.85;2.65;;;;;;;7.81;77.34;99864.59;4423839;32;34368;-73
2023/01/07 07:34:32;;;;;;;0.85;0.85;;;;;;;7.52;78.09;99866.94;4423918;32;33488;-75
2023/01/07 07:37:02;;;;;;;3.72;1.92;;;;;;;7.47;77.84;99868.62;4423874;32;33067;-76
2023/01/07 07:39:32;;;;;;;2.70;2.20;;;;;;;7.66;78.17;99870.53;4421869;32;35959;-74
2023/01/07 07:42:04;;;;;;;2.55;2.35;;;;;;;7.94;76.90;99863.87;4422817;32;34426;-76
2023/01/07 07:44:32;;;;;;;2.25;2.05;;;;;;;7.15;82.32;99862.22;4421029;32;34260;-75
2023/01/07 07:47:00;;;;;;;3.17;2.87;;;;;;;7.34;82.34;99865.00;4417519;32;33153;-76
2023/01/07 07:49:29;;;;;;;4.35;2.55;;;;;;;7.14;80.34;99872.56;4423697;32;35131;-75
2023/01/07 07:51:57;;;;;;;1.75;1.37;;;;;;;7.91;77.37;99865.56;4423625;32;35145;-74
2023/01/07 07:54:26;;;;;;;1.48;1.37;;;;;;;8.48;76.85;99858.22;4435325;32;34235;-73
2023/01/07 07:56:57;;;;;;;1.50;1.40;;;;;;;9.56;73.00;99859.50;4423671;32;33884;-73
2023/01/07 07:59:25;;;;;;;2.20;1.52;;;;;;;9.61;73.35;99862.13;4423750;32;34953;-74
2023/01/07 08:01:53;;;;;;;4.35;1.50;;;;;;;10.06;73.37;99866.50;4423466;32;34429;-75
2023/01/07 08:04:22;;;;;;;4.75;3.60;;;;;;;10.76;71.36;99867.25;4423607;32;34488;-75
2023/01/07 08:06:50;;;;;;;1.77;1.67;;;;;;;11.41;70.12;99864.37;4423627;32;33900;-74
2023/01/07 08:09:18;;;;;;;3.62;3.30;;;;;;;11.56;67.22;99864.28;4423484;32;34934;-74
2023/01/07 08:11:46;;;;;;;1.12;1.12;;;;;;;12.42;65.27;99857.53;4421774;32;35336;-74
2023/01/07 08:14:14;;;;;;;11.90;2.80;;;;;;;12.40;64.97;99871.50;4423495;32;33338;-74
2023/01/07 08:16:42;;;;;;;2.67;2.47;;;;;;;12.48;64.00;99864.44;4423332;32;33809;-75
2023/01/07 08:19:11;;;;;;;2.58;2.37;;;;;;;12.16;64.92;99857.78;4423384;32;35154;-75
2023/01/07 08:21:39;;;;;;;4.93;3.08;;;;;;;11.13;66.32;99868.88;4434623;32;35030;-75
2023/01/07 08:24:07;;;;;;;5.05;3.80;;;;;;;11.55;66.64;99862.53;4423109;32;33402;-74
2023/01/07 08:26:35;;;;;;;1.48;1.35;;;;;;;11.67;64.59;99853.78;4423261;32;33876;-73
2023/01/07 08:29:03;;;;;;;2.15;1.62;;;;;;;11.52;66.09;99857.38;4434612;32;35142;-76
2023/01/07 08:31:31;;;;;;;3.10;2.80;;;;;;;11.06;67.81;99856.75;4423154;32;34448;-74
2023/01/07 08:33:59;;;;;;;6.95;2.83;;;;;;;12.16;65.59;99849.97;4423286;32;33505;-75
2023/01/07 08:36:27;;;;;;;1.20;1.10;;;;;;;12.82;64.02;99851.00;4423158;32;34078;-75
2023/01/07 08:38:55;;;;;;;3.33;2.80;;;;;;;12.67;64.30;99855.53;4421889;32;35054;-74
2023/01/07 08:41:24;;;;;;;1.95;1.85;;;;;;;12.87;63.68;99857.06;4423129;32;34530;-76
2023/01/07 08:43:52;;;;;;;3.25;1.17;;;;;;;13.07;62.97;99855.03;4421839;32;34040;-75
2023/01/07 08:46:21;;;;;;;1.60;1.50;;;;;;;12.73;64.74;99851.13;4409145;32;32729;-74
2023/01/07 08:48:49;;;;;;;2.00;1.90;;;;;;;13.36;63.34;99848.63;4434202;32;35052;-74
2023/01/07 08:51:17;;;;;;;1.12;1.05;;;;;;;13.39;62.24;99848.56;4422912;32;34432;-74
2023/01/07 08:53:46;;;;;;;1.48;1.37;;;;;;;14.07;60.27;99842.28;4422852;32;33105;-74
2023/01/07 08:56:14;;;;;;;2.28;1.67;;;;;;;14.64;58.27;99843.03;4422864;32;33910;-74
2023/01/07 08:58:42;;;;;;;1.17;1.17;;;;;;;15.54;55.84;99840.25;4421602;32;35083;-76
2023/01/07 09:01:10;;;;;;;1.08;1.08;;;;;;;16.10;53.91;99837.19;4422656;32;35247;-75
2023/01/07 09:03:39;;;;;;;1.40;1.35;;;;;;;17.17;51.44;99838.66;4422714;32;33373;-76
2023/01/07 09:06:07;;;;;;;1.62;1.48;;;;;;;18.09;48.77;99836.66;4422604;32;33826;-75
2023/01/07 09:08:35;;;;;;;5.87;2.85;;;;;;;18.96;46.18;99843.31;4422548;32;35028;-75
2023/01/07 09:11:04;;;;;;;0.73;0.73;;;;;;;20.19;44.63;99848.16;4434039;32;34535;-74
2023/01/07 09:13:32;;;;;;;1.90;1.80;;;;;;;19.75;44.05;99842.94;4422661;32;33253;-75
2023/01/07 09:16:00;;;;;;;2.87;2.10;;;;;;;19.60;45.00;99839.09;4422507;32;33987;-75
2023/01/07 09:18:28;;;;;;;2.35;2.20;;;;;;;19.48;44.81;99843.97;4433939;32;35829;-74
2023/01/07 09:20:56;;;;;;;8.40;4.53;;;;;;;19.35;45.50;99845.34;4422431;32;34481;-74
2023/01/07 09:23:24;;;;;;;1.92;1.80;;;;;;;20.00;43.12;99832.22;4422719;32;33533;-73
2023/01/07 09:25:53;;;;;;;0.80;0.80;;;;;;;18.01;47.73;99836.94;4424813;32;34113;-75
2023/01/07 09:28:21;;;;;;;3.78;1.85;;;;;;;19.70;46.09;99836.03;4423549;32;34603;-75
2023/01/07 09:30:49;;;;;;;2.15;1.92;;;;;;;20.75;42.97;99836.06;4424703;32;34300;-75
2023/01/07 09:33:17;;;;;;;16.08;14.35;;;;;;;20.05;43.41;99831.09;4424613;32;34257;-75
2023/01/07 09:35:45;;;;;;;3.80;3.42;;;;;;;18.49;46.86;99832.66;4424610;32;34750;-74
2023/01/07 09:38:13;;;;;;;12.55;9.35;;;;;;;18.04;46.97;99825.44;4424602;32;35971;-74
2023/01/07 09:40:43;;;;;;;11.75;8.15;;;;;;;17.08;51.02;99823.13;4424852;32;35285;-74
2023/01/07 09:43:17;;;;;;;13.02;4.00;;;;;;;17.47;49.66;99821.97;4436259;32;33305;-75
2023/01/07 09:45:49;;;;;;;13.30;7.93;;;;;;;18.46;48.29;99822.22;4424653;32;34879;-73
2023/01/07 09:48:33;;;;;;;4.85;4.32;;;;;;;18.60;47.69;99813.81;4436173;32;35848;-72
2023/01/07 09:51:04;;;;;;;9.98;5.72;;;;;;;18.17;48.24;99810.91;4424544;32;35196;-75
2023/01/07 09:53:45;;;;;;;6.07;3.62;;;;;;;18.05;49.29;99806.06;4424653;32;34185;-74
2023/01/07 09:56:29;;;;;;;7.30;4.30;;;;;;;18.27;48.62;99803.56;4423454;32;33956;-78
2023/01/07 09:58:59;;;;;;;3.10;2.80;;;;;;;18.47;48.74;99792.31;4423392;32;35052;-74
2023/01/07 10:01:56;;;;;;;1.92;1.62;;;;;;;18.04;48.52;99793.81;4435796;32;33765;-74
2023/01/07 10:04:37;;;;;;;;;;;;;;;20.31;43.86;99793.88;4424211;32;33381;-76
2023/01/07 10:07:26;;;;;;;3.42;2.95;;;;;;;20.01;44.11;99794.28;4436022;32;34995;-74
2023/01/07 10:10:16;;;;;;;1.37;1.27;;;;;;;21.02;41.91;99792.47;4423412;32;35790;-74
2023/01/07 10:12:49;;;;;;;1.77;1.62;;;;;;;21.58;40.03;99787.19;4424385;32;34575;-72
2023/01/07 10:15:40;;;;;;;1.40;1.30;;;;;;;22.02;39.76;99794.72;4423616;32;33523;-75
2023/01/07 10:18:20;;;;;;;1.98;1.70;;;;;;;22.49;38.51;99788.78;4424452;32;34863;-75
2023/01/07 10:21:14;;;;;;;2.70;2.50;;;;;;;23.12;36.27;99792.53;4424402;32;35761;-75
2023/01/07 10:23:48;;;;;;;6.10;2.78;;;;;;;23.78;36.23;99790.56;4410472;32;33728;-76
2023/01/07 10:26:29;;;;;;;2.83;1.52;;;;;;;24.63;34.38;99778.41;4423230;32;34381;-76
2023/01/07 10:29:04;;;;;;;1.92;1.80;;;;;;;24.27;35.09;99781.50;4424454;32;33860;-75
2023/01/07 10:31:32;;;;;;;2.57;2.10;;;;;;;23.74;35.24;99784.56;4423172;32;35897;-75
2023/01/07 10:34:00;;;;;;;2.28;1.80;;;;;;;24.72;34.23;99777.84;4424290;32;34402;-76
2023/01/07 10:36:44;;;;;;;6.53;2.47;;;;;;;24.99;32.98;99774.41;4423175;32;33429;-75
2023/01/07 10:39:20;;;;;;;4.72;2.33;;;;;;;24.51;33.40;99768.50;4423101;32;33936;-77
2023/01/07 10:42:38;;;;;;;3.58;1.40;;;;;;;25.61;30.81;99762.44;4424164;32;35039;-74
2023/01/07 10:45:40;;;;;;;5.35;3.47;;;;;;;24.66;32.44;99767.59;4405368;32;33882;-72
2023/01/07 10:48:34;;;;;;;6.75;2.12;;;;;;;24.16;34.06;99768.81;4424207;32;33058;-74
2023/01/07 10:51:10;;;;;;;4.47;2.70;;;;;;;24.69;33.90;99763.84;4424185;32;34799;-74
2023/01/07 10:53:59;;;;;;;1.25;1.17;;;;;;;25.54;32.18;99756.66;4424099;32;35585;-76
2023/01/07 10:56:39;;;;;;;0.77;0.77;;;;;;;24.95;33.17;99747.09;4424610;32;35174;-75
2023/01/07 10:59:14;;;;;;;2.15;1.98;;;;;;;25.02;32.80;99747.53;4424157;32;33393;-74
2023/01/07 11:01:51;;;;;;;1.05;1.05;;;;;;;25.21;33.51;99747.22;4422951;32;34773;-73
2023/01/07 11:04:20;;;;;;;1.40;1.25;;;;;;;25.10;31.04;99745.25;4423194;32;35010;-76
2023/01/07 11:06:51;;;;;;;4.05;1.98;;;;;;;25.00;31.89;99738.81;4422949;32;35040;-77
2023/01/07 11:09:41;;;;;;;3.05;2.42;;;;;;;24.59;33.82;99742.28;4424084;32;33445;-77
2023/01/07 11:12:31;;;;;;;5.47;3.95;;;;;;;25.59;31.32;99741.22;4423806;32;34819;-76
2023/01/07 11:15:03;;;;;;;1.17;1.12;;;;;;;26.35;30.83;99739.63;4423699;32;35883;-75
2023/01/07 11:17:39;;;;;;;1.60;1.50;;;;;;;25.60;30.03;99726.06;4422902;32;34496;-76
2023/01/07 11:20:08;;;;;;;0.75;0.75;;;;;;;24.28;32.95;99729.97;4423813;32;33324;-74
2023/01/07 11:22:37;;;;;;;1.48;1.37;;;;;;;25.90;30.09;99723.97;4423531;32;33971;-74
2023/01/07 11:25:27;;;;;;;1.50;1.20;;;;;;;25.76;29.52;99725.88;4424041;32;34975;-77
2023/01/07 11:27:58;;;;;;;2.20;1.17;;;;;;;25.07;31.02;99724.13;4422835;32;35140;-76
2023/01/07 11:30:28;;;;;;;2.95;2.42;;;;;;;25.61;31.03;99717.97;4423205;32;34233;-75
2023/01/07 11:33:05;;;;;;;3.60;2.67;;;;;;;25.47;31.64;99713.53;4422829;32;33170;-75
2023/01/07 11:35:33;;;;;;;2.60;1.42;;;;;;;25.13;32.44;99707.75;4422787;32;35167;-75
2023/01/07 11:38:26;;;;;;;1.62;1.52;;;;;;;26.29;30.04;99703.53;4422597;32;34510;-76
2023/01/07 11:40:58;;;;;;;4.28;3.87;;;;;;;25.28;31.25;99705.91;4422357;32;33517;-73
2023/01/07 11:43:37;;;;;;;3.25;2.83;;;;;;;25.23;31.66;99707.12;4422591;32;34163;-73
2023/01/07 11:46:12;;;;;;;2.65;2.10;;;;;;;24.88;32.07;99703.13;4422098;32;35341;-76
2023/01/07 11:48:57;;;;;;;1.70;1.60;;;;;;;24.03;33.56;99695.06;4411239;32;34010;-75
2023/01/07 11:51:25;;;;;;;4.05;3.53;;;;;;;24.58;32.70;99685.53;4423839;32;33461;-77
2023/01/07 11:53:56;;;;;;;4.25;3.65;;;;;;;24.94;32.03;99680.59;4423933;32;34034;-75
2023/01/07 11:56:32;;;;;;;6.20;4.65;;;;;;;24.49;32.49;99686.06;4422506;32;35861;-75
2023/01/07 11:59:28;;;;;;;2.17;2.03;;;;;;;24.46;32.78;99672.09;4423634;32;34465;-75
2023/01/07 12:01:58;;;;;;;7.07;2.95;;;;;;;24.56;32.36;99666.09;4419761;32;33627;-76
2023/01/07 12:04:34;;;;;;;4.25;2.67;;;;;;;24.18;34.17;99676.50;4422481;32;33980;-74
2023/01/07 12:07:13;;;;;;;13.60;4.32;;;;;;;24.87;31.68;99673.97;4423578;32;34977;-76
2023/01/07 12:09:43;;;;;;;3.90;2.47;;;;;;;25.65;30.30;99673.25;4422590;32;35007;-75